createdAt,value
2019-05-03T00:00:26.224Z,1.70
2019-05-03T00:02:56.745Z,1.42
2019-05-03T00:05:36.493Z,2.00
2019-05-03T00:08:06.611Z,1.90
2019-05-03T00:10:37.957Z,1.80
2019-05-03T00:13:07.919Z,1.95
2019-05-03T00:15:38.610Z,1.70
2019-05-03T00:18:08.112Z,1.62
2019-05-03T00:20:37.002Z,2.05
2019-05-03T00:23:05.991Z,1.85
2019-05-03T00:25:35.195Z,1.52
2019-05-03T00:28:04.504Z,2.10
2019-05-03T00:30:33.598Z,1.70
2019-05-03T00:33:03.016Z,1.30
2019-05-03T00:35:46.725Z,1.10
2019-05-03T00:38:16.453Z,1.45
2019-05-03T00:40:45.537Z,1.70
2019-05-03T00:43:14.629Z,1.35
2019-05-03T00:45:43.715Z,1.52
2019-05-03T00:48:13.015Z,2.00
2019-05-03T00:50:42.571Z,1.57
2019-05-03T00:53:11.742Z,1.62
2019-05-03T00:55:41.978Z,1.65
2019-05-03T00:58:11.780Z,1.37
2019-05-03T01:00:41.787Z,1.47
2019-05-03T01:03:12.543Z,1.85
2019-05-03T01:05:42.335Z,1.75
2019-05-03T01:08:12.639Z,1.50
2019-05-03T01:10:42.155Z,1.27
2019-05-03T01:13:12.354Z,1.75
2019-05-03T01:15:43.094Z,1.30
2019-05-03T01:18:14.299Z,1.85
2019-05-03T01:20:43.336Z,2.58
2019-05-03T01:23:13.247Z,1.57
2019-05-03T01:25:42.924Z,1.60
2019-05-03T01:28:12.339Z,1.67
2019-05-03T01:31:02.372Z,1.50
2019-05-03T01:33:32.201Z,1.30
2019-05-03T01:36:02.771Z,1.20
2019-05-03T01:38:32.134Z,2.62
2019-05-03T01:41:01.830Z,1.42
2019-05-03T01:43:31.692Z,1.70
2019-05-03T01:46:02.690Z,1.30
2019-05-03T01:48:35.951Z,1.30
2019-05-03T01:51:07.160Z,1.50
2019-05-03T01:53:37.815Z,1.50
2019-05-03T01:56:06.805Z,1.50
2019-05-03T01:58:35.800Z,1.37
2019-05-03T02:01:24.761Z,1.52
2019-05-03T02:04:04.100Z,1.40
2019-05-03T02:06:33.191Z,1.60
2019-05-03T02:09:02.097Z,2.35
2019-05-03T02:11:32.604Z,1.55
2019-05-03T02:14:01.827Z,1.52
2019-05-03T02:16:32.507Z,1.85
2019-05-03T02:19:02.490Z,1.70
2019-05-03T02:21:32.240Z,1.70
2019-05-03T02:24:02.567Z,1.40
2019-05-03T02:26:31.851Z,1.50
2019-05-03T02:29:01.828Z,1.50
2019-05-03T02:31:32.859Z,1.45
2019-05-03T02:34:03.606Z,1.90
2019-05-03T02:36:33.665Z,2.47
2019-05-03T02:39:04.321Z,1.60
2019-05-03T02:41:34.240Z,2.10
2019-05-03T02:44:06.129Z,1.50
2019-05-03T02:46:41.542Z,1.92
2019-05-03T02:49:12.173Z,1.50
2019-05-03T02:51:41.271Z,1.40
2019-05-03T02:54:10.359Z,1.95
2019-05-03T02:56:39.269Z,1.77
2019-05-03T02:59:08.258Z,1.55
2019-05-03T03:01:37.857Z,1.60
2019-05-03T03:04:07.771Z,1.60
2019-05-03T03:06:38.001Z,1.45
2019-05-03T03:09:07.595Z,1.20
2019-05-03T03:11:39.349Z,1.62
2019-05-03T03:14:10.387Z,1.50
2019-05-03T03:16:45.616Z,1.50
2019-05-03T03:19:16.771Z,1.72
2019-05-03T03:21:48.738Z,1.80
2019-05-03T03:33:00.270Z,1.62
2019-05-03T03:49:51.270Z,1.72
2019-05-03T03:52:22.192Z,1.70
2019-05-03T03:54:55.266Z,1.82
2019-05-03T03:57:27.123Z,1.42
2019-05-03T03:59:56.523Z,1.72
2019-05-03T04:02:26.399Z,2.00
2019-05-03T04:04:56.590Z,1.30
2019-05-03T04:07:26.115Z,1.50
2019-05-03T04:09:56.844Z,1.40
2019-05-03T04:12:26.929Z,1.98
2019-05-03T04:15:16.013Z,1.40
2019-05-03T04:17:52.573Z,1.75
2019-05-03T04:20:25.666Z,1.20
2019-05-03T04:22:56.118Z,1.45
2019-05-03T04:25:26.206Z,1.45
2019-05-03T04:27:56.149Z,1.27
2019-05-03T04:30:25.755Z,1.27
2019-05-03T04:32:56.534Z,1.50
2019-05-03T04:35:27.309Z,1.50
2019-05-03T04:37:56.406Z,1.42
2019-05-03T04:40:25.988Z,1.37
2019-05-03T04:42:55.970Z,1.65
2019-05-03T04:45:25.800Z,1.30
2019-05-03T04:47:56.462Z,2.25
2019-05-03T04:50:25.928Z,1.30
2019-05-03T04:52:56.676Z,1.10
2019-05-03T04:55:26.785Z,1.75
2019-05-03T04:57:56.416Z,1.40
2019-05-03T05:00:46.538Z,1.10
2019-05-03T05:03:15.831Z,1.42
2019-05-03T05:05:45.428Z,1.12
2019-05-03T05:08:16.270Z,1.60
2019-05-03T05:10:45.666Z,1.30
2019-05-03T05:13:15.985Z,0.95
2019-05-03T05:15:46.052Z,0.80
2019-05-03T05:18:17.148Z,1.02
2019-05-03T05:20:55.475Z,0.70
2019-05-03T05:23:25.066Z,1.32
2019-05-03T05:26:14.327Z,1.27
2019-05-03T05:28:47.106Z,1.20
2019-05-03T05:31:16.097Z,1.00
2019-05-03T05:33:45.203Z,1.47
2019-05-03T05:36:15.291Z,0.90
2019-05-03T05:38:45.145Z,1.17
2019-05-03T05:41:15.622Z,0.98
2019-05-03T05:43:45.056Z,0.93
2019-05-03T05:46:14.725Z,0.60
2019-05-03T05:48:48.680Z,0.90
2019-05-03T05:51:19.205Z,1.27
2019-05-03T05:53:48.499Z,1.07
2019-05-03T05:56:26.185Z,1.00
2019-05-03T05:58:57.552Z,1.12
2019-05-03T06:01:38.108Z,0.70
2019-05-03T06:04:09.995Z,0.90
2019-05-03T06:06:55.273Z,0.70
2019-05-03T06:09:41.836Z,0.90
2019-05-03T06:12:15.810Z,0.72
2019-05-03T06:14:47.256Z,1.25
2019-05-03T06:17:24.566Z,0.95
2019-05-03T06:20:05.410Z,1.12
2019-05-03T06:22:36.196Z,0.90
2019-05-03T06:25:08.775Z,1.12
2019-05-03T06:27:39.366Z,0.80
2019-05-03T06:30:10.919Z,1.15
2019-05-03T06:32:41.630Z,0.70
2019-05-03T06:35:10.689Z,1.20
2019-05-03T06:37:41.423Z,0.95
2019-05-03T06:40:11.586Z,0.80
2019-05-03T06:42:51.590Z,0.62
2019-05-03T06:45:12.201Z,0.80
2019-05-03T06:47:46.022Z,0.75
2019-05-03T06:50:12.010Z,1.00
2019-05-03T06:52:42.129Z,0.40
2019-05-03T06:55:11.230Z,0.50
2019-05-03T06:57:45.558Z,1.00
2019-05-03T07:00:34.953Z,0.55
2019-05-03T07:03:05.547Z,0.57
2019-05-03T07:05:37.099Z,0.60
2019-05-03T07:08:10.899Z,0.72
2019-05-03T07:10:47.413Z,0.75
2019-05-03T07:13:16.463Z,0.98
2019-05-03T07:15:45.559Z,1.50
2019-05-03T07:18:15.713Z,0.88
2019-05-03T07:20:46.612Z,0.80
2019-05-03T07:23:15.819Z,0.60
2019-05-03T07:25:45.006Z,0.53
2019-05-03T07:28:14.924Z,0.53
2019-05-03T07:30:45.438Z,1.00
2019-05-03T07:33:19.060Z,0.93
2019-05-03T07:35:52.106Z,1.00
2019-05-03T07:38:21.042Z,1.00
2019-05-03T07:40:50.799Z,1.42
2019-05-03T07:43:19.751Z,0.90
2019-05-03T07:45:48.642Z,1.30
2019-05-03T07:48:17.551Z,0.70
2019-05-03T07:50:46.564Z,1.10
2019-05-03T07:53:15.745Z,1.57
2019-05-03T07:55:55.231Z,1.37
2019-05-03T07:58:26.122Z,0.95
2019-05-03T08:01:07.142Z,1.85
2019-05-03T08:03:34.849Z,2.17
2019-05-03T08:06:07.567Z,1.75
2019-05-03T08:08:36.667Z,2.15
2019-05-03T08:11:05.775Z,2.37
2019-05-03T08:13:35.698Z,3.35
2019-05-03T08:16:05.913Z,2.80
2019-05-03T08:18:35.563Z,1.70
2019-05-03T08:21:05.509Z,1.62
2019-05-03T08:23:35.397Z,1.62
2019-05-03T08:26:05.758Z,1.72
2019-05-03T08:28:35.191Z,1.90
2019-05-03T08:31:15.155Z,2.12
2019-05-03T08:33:45.874Z,1.85
2019-05-03T08:36:15.639Z,1.55
2019-05-03T08:38:45.218Z,2.42
2019-05-03T08:41:18.858Z,2.05
2019-05-03T08:43:48.812Z,2.17
2019-05-03T08:46:18.106Z,3.15
2019-05-03T08:48:46.980Z,2.25
2019-05-03T08:51:16.999Z,2.65
2019-05-03T08:53:46.113Z,2.85
2019-05-03T08:56:15.694Z,2.08
2019-05-03T08:58:45.312Z,2.25
2019-05-03T09:01:14.794Z,1.92
2019-05-03T09:03:45.769Z,1.85
2019-05-03T09:06:15.463Z,2.02
2019-05-03T09:08:45.845Z,1.95
2019-05-03T09:11:16.811Z,1.85
2019-05-03T09:13:50.256Z,1.60
2019-05-03T09:16:19.410Z,1.85
2019-05-03T09:18:49.046Z,1.47
2019-05-03T09:21:18.025Z,1.62
2019-05-03T09:23:46.989Z,1.67
2019-05-03T09:26:16.009Z,1.60
2019-05-03T09:28:45.522Z,1.87
2019-05-03T09:31:15.495Z,2.00
2019-05-03T09:33:45.245Z,1.80
2019-05-03T09:36:14.874Z,1.80
2019-05-03T09:38:45.771Z,1.87
2019-05-03T09:41:15.172Z,1.70
2019-05-03T09:43:45.017Z,1.92
2019-05-03T09:46:14.707Z,2.15
2019-05-03T09:48:45.471Z,2.10
2019-05-03T09:51:14.875Z,1.98
2019-05-03T09:53:55.493Z,2.30
2019-05-03T09:56:29.591Z,1.77
2019-05-03T09:58:58.810Z,1.80
2019-05-03T10:01:27.813Z,1.25
2019-05-03T10:03:56.678Z,1.45
2019-05-03T10:06:25.619Z,1.90
2019-05-03T10:08:54.687Z,1.32
2019-05-03T10:11:25.434Z,1.22
2019-05-03T10:13:56.434Z,1.52
2019-05-03T10:16:27.071Z,1.80
2019-05-03T10:18:56.001Z,1.50
2019-05-03T10:21:26.577Z,1.57
2019-05-03T10:23:56.523Z,0.88
2019-05-03T10:26:26.313Z,0.90
2019-05-03T10:28:56.221Z,1.00
2019-05-03T10:31:26.790Z,1.40
2019-05-03T10:33:58.241Z,1.37
2019-05-03T10:36:27.259Z,1.42
2019-05-03T10:38:56.850Z,1.15
2019-05-03T10:41:25.950Z,1.30
2019-05-03T10:43:55.648Z,0.90
2019-05-03T10:46:25.077Z,0.90
2019-05-03T10:48:55.776Z,1.00
2019-05-03T10:51:26.273Z,1.30
2019-05-03T10:53:56.787Z,1.00
2019-05-03T10:56:27.258Z,1.10
2019-05-03T10:58:57.763Z,0.90
2019-05-03T11:01:45.207Z,1.45
2019-05-03T11:04:14.867Z,1.17
2019-05-03T11:06:45.720Z,1.70
2019-05-03T11:09:15.231Z,1.02
2019-05-03T11:11:45.635Z,1.10
2019-05-03T11:14:15.027Z,1.30
2019-05-03T11:16:46.035Z,1.30
2019-05-03T11:19:15.006Z,1.40
2019-05-03T11:21:45.530Z,1.10
2019-05-03T11:24:14.944Z,1.42
2019-05-03T11:26:45.779Z,1.80
2019-05-03T11:29:15.756Z,1.45
2019-05-03T11:31:58.909Z,1.25
2019-05-03T11:34:32.222Z,1.20
2019-05-03T11:37:08.366Z,1.30
2019-05-03T11:39:37.560Z,1.22
2019-05-03T11:42:06.665Z,1.10
2019-05-03T11:44:38.526Z,1.80
2019-05-03T11:47:09.045Z,2.95
2019-05-03T11:49:38.243Z,1.35
2019-05-03T11:52:07.648Z,1.40
2019-05-03T11:54:36.637Z,1.35
2019-05-03T11:57:19.152Z,1.42
2019-05-03T11:59:48.665Z,1.70
2019-05-03T12:02:19.180Z,2.02
2019-05-03T12:04:49.510Z,1.42
2019-05-03T12:07:39.993Z,1.98
2019-05-03T12:10:17.524Z,2.22
2019-05-03T12:12:37.680Z,1.92
2019-05-03T12:15:11.112Z,1.37
2019-05-03T12:17:53.877Z,1.30
2019-05-03T12:20:17.259Z,1.15
2019-05-03T12:22:46.676Z,1.12
2019-05-03T12:25:16.691Z,1.22
2019-05-03T12:27:46.067Z,2.20
2019-05-03T12:30:15.477Z,1.52
2019-05-03T12:32:45.180Z,1.52
2019-05-03T12:35:15.334Z,1.15
2019-05-03T12:37:44.812Z,1.02
2019-05-03T12:40:14.913Z,0.90
2019-05-03T12:42:45.502Z,1.70
2019-05-03T12:45:16.600Z,1.10
2019-05-03T12:47:45.676Z,1.10
2019-05-03T12:50:15.677Z,1.70
2019-05-03T12:52:50.492Z,1.40
2019-05-03T12:55:15.895Z,1.80
2019-05-03T12:57:45.775Z,1.62
2019-05-03T13:00:24.977Z,1.42
2019-05-03T13:02:55.342Z,1.50
2019-05-03T13:05:25.374Z,1.20
2019-05-03T13:08:15.138Z,1.07
2019-05-03T13:10:45.381Z,1.35
2019-05-03T13:13:14.624Z,0.65
2019-05-03T13:15:44.949Z,1.10
2019-05-03T13:18:15.765Z,1.30
2019-05-03T13:20:45.423Z,0.85
2019-05-03T13:23:14.590Z,0.88
2019-05-03T13:25:44.752Z,0.80
2019-05-03T13:28:15.309Z,0.93
2019-05-03T13:30:45.258Z,0.93
2019-05-03T13:33:15.683Z,0.72
2019-05-03T13:35:48.244Z,0.40
2019-05-03T13:38:15.916Z,0.50
2019-05-03T13:40:45.455Z,0.40
2019-05-03T13:43:15.026Z,0.45
2019-05-03T13:45:45.025Z,0.98
2019-05-03T13:48:16.827Z,0.60
2019-05-03T13:50:45.087Z,0.85
2019-05-03T13:53:16.174Z,0.95
2019-05-03T13:55:45.125Z,1.60
2019-05-03T13:58:14.760Z,1.30
2019-05-03T14:00:45.357Z,1.65
2019-05-03T14:03:15.373Z,1.50
2019-05-03T14:05:44.779Z,1.00
2019-05-03T14:08:16.525Z,1.77
2019-05-03T14:10:45.855Z,1.30
2019-05-03T14:13:14.907Z,1.10
2019-05-03T14:15:45.333Z,1.35
2019-05-03T14:18:15.234Z,0.93
2019-05-03T14:20:52.106Z,0.62
2019-05-03T14:23:21.137Z,0.70
2019-05-03T14:25:50.128Z,0.70
2019-05-03T14:28:19.330Z,1.32
2019-05-03T14:30:51.810Z,0.65
2019-05-03T14:33:21.828Z,0.70
2019-05-03T14:35:51.974Z,0.60
2019-05-03T14:38:21.960Z,0.85
2019-05-03T14:40:51.838Z,0.60
2019-05-03T14:43:22.063Z,0.98
2019-05-03T14:45:51.916Z,0.72
2019-05-03T14:48:24.632Z,0.72
2019-05-03T14:50:57.442Z,0.85
2019-05-03T14:53:27.674Z,1.00
2019-05-03T14:55:59.166Z,1.05
2019-05-03T14:58:48.184Z,1.12
2019-05-03T15:01:35.464Z,1.20
2019-05-03T15:04:06.512Z,1.10
2019-05-03T15:06:37.467Z,0.85
2019-05-03T15:09:08.377Z,0.80
2019-05-03T15:11:37.654Z,0.75
2019-05-03T15:14:08.358Z,0.60
2019-05-03T15:16:40.332Z,0.93
2019-05-03T15:19:14.851Z,1.00
2019-05-03T15:21:45.269Z,1.67
2019-05-03T15:24:15.194Z,0.85
2019-05-03T15:26:45.059Z,0.57
2019-05-03T15:29:18.078Z,0.50
2019-05-03T15:31:49.193Z,0.60
2019-05-03T15:34:19.808Z,0.57
2019-05-03T15:36:51.100Z,0.60
2019-05-03T15:39:20.090Z,0.60
2019-05-03T15:41:49.186Z,0.78
2019-05-03T15:44:19.719Z,0.60
2019-05-03T15:46:57.416Z,0.82
2019-05-03T15:49:27.852Z,1.45
2019-05-03T15:51:57.785Z,0.82
2019-05-03T15:54:27.835Z,1.42
2019-05-03T15:56:58.077Z,1.10
2019-05-03T15:59:27.681Z,1.37
2019-05-03T16:01:57.324Z,1.98
2019-05-03T16:04:27.164Z,1.22
2019-05-03T16:06:56.507Z,1.05
2019-05-03T16:09:26.369Z,0.98
2019-05-03T16:11:56.913Z,1.22
2019-05-03T16:14:26.742Z,1.12
2019-05-03T16:16:56.547Z,0.82
2019-05-03T16:19:26.565Z,0.90
2019-05-03T16:21:56.245Z,0.80
2019-05-03T16:24:26.354Z,0.93
2019-05-03T16:27:11.915Z,1.42
2019-05-03T16:29:41.694Z,1.40
2019-05-03T16:32:11.462Z,1.75
2019-05-03T16:34:44.389Z,1.22
2019-05-03T16:37:14.873Z,1.30
2019-05-03T16:39:45.329Z,1.35
2019-05-03T16:42:15.657Z,1.40
2019-05-03T16:44:45.662Z,1.35
2019-05-03T16:47:15.674Z,1.27
2019-05-03T16:49:46.859Z,1.60
2019-05-03T16:52:17.495Z,1.00
2019-05-03T16:54:47.645Z,1.20
2019-05-03T16:57:18.432Z,0.60
2019-05-03T16:59:48.304Z,0.90
2019-05-03T17:02:20.437Z,0.85
2019-05-03T17:04:51.991Z,0.82
2019-05-03T17:07:26.384Z,0.95
2019-05-03T17:09:58.165Z,1.52
2019-05-03T17:12:29.757Z,1.30
2019-05-03T17:15:05.167Z,1.15
2019-05-03T17:17:35.521Z,1.10
2019-05-03T17:20:07.830Z,1.10
2019-05-03T17:22:37.894Z,1.30
2019-05-03T17:25:08.883Z,1.25
2019-05-03T17:27:38.726Z,1.25
2019-05-03T17:30:08.835Z,1.10
2019-05-03T17:32:39.418Z,0.95
2019-05-03T17:35:09.054Z,1.20
2019-05-03T17:37:38.289Z,0.72
2019-05-03T17:40:12.588Z,1.12
2019-05-03T17:43:02.020Z,1.20
2019-05-03T17:45:35.123Z,1.57
2019-05-03T17:48:05.373Z,1.10
2019-05-03T17:50:35.360Z,2.10
2019-05-03T17:53:23.061Z,0.72
2019-05-03T17:55:57.369Z,0.88
2019-05-03T17:58:47.011Z,0.98
2019-05-03T18:01:18.564Z,1.00
2019-05-03T18:03:50.208Z,1.00
2019-05-03T18:06:28.085Z,0.70
2019-05-03T18:09:05.804Z,0.93
2019-05-03T18:11:38.074Z,0.80
2019-05-03T18:14:07.875Z,1.27
2019-05-03T18:16:37.794Z,1.20
2019-05-03T18:19:07.216Z,1.47
2019-05-03T18:21:36.910Z,1.77
2019-05-03T18:24:06.990Z,1.20
2019-05-03T18:26:36.863Z,1.60
2019-05-03T18:29:06.753Z,1.50
2019-05-03T18:31:37.168Z,1.20
2019-05-03T18:34:18.679Z,1.40
2019-05-03T18:36:41.179Z,0.93
2019-05-03T18:39:10.765Z,0.90
2019-05-03T18:41:39.697Z,1.57
2019-05-03T18:44:10.307Z,2.25
2019-05-03T18:46:46.546Z,1.40
2019-05-03T18:49:15.811Z,1.15
2019-05-03T18:51:44.920Z,1.65
2019-05-03T18:54:15.631Z,1.32
2019-05-03T18:56:44.630Z,1.00
2019-05-03T18:59:14.670Z,1.07
2019-05-03T19:01:45.233Z,1.30
2019-05-03T19:04:15.851Z,1.30
2019-05-03T19:06:46.249Z,1.22
2019-05-03T19:09:20.518Z,1.17
2019-05-03T19:12:05.781Z,2.02
2019-05-03T19:14:34.838Z,1.40
2019-05-03T19:17:15.380Z,1.12
2019-05-03T19:19:48.640Z,1.42
2019-05-03T19:22:18.559Z,2.12
2019-05-03T19:24:47.793Z,1.75
2019-05-03T19:27:16.876Z,1.72
2019-05-03T19:29:46.180Z,1.67
2019-05-03T19:32:15.276Z,1.80
2019-05-03T19:34:50.952Z,2.17
2019-05-03T19:37:16.539Z,1.80
2019-05-03T19:39:46.450Z,2.42
2019-05-03T19:42:15.693Z,1.90
2019-05-03T19:44:45.399Z,1.75
2019-05-03T19:47:15.689Z,1.50
2019-05-03T19:49:45.409Z,1.60
2019-05-03T19:52:16.034Z,2.62
2019-05-03T19:54:45.082Z,1.98
2019-05-03T19:57:17.071Z,2.02
2019-05-03T19:59:56.375Z,1.50
2019-05-03T20:02:26.129Z,1.17
2019-05-03T20:05:14.984Z,1.65
2019-05-03T20:07:46.199Z,1.35
2019-05-03T20:10:18.158Z,0.98
2019-05-03T20:12:48.718Z,1.37
2019-05-03T20:15:18.416Z,1.20
2019-05-03T20:17:56.696Z,1.47
2019-05-03T20:20:19.169Z,1.27
2019-05-03T20:22:48.753Z,1.40
2019-05-03T20:25:19.104Z,1.32
2019-05-03T20:27:48.525Z,1.75
2019-05-03T20:30:18.311Z,1.60
2019-05-03T20:32:48.032Z,1.85
2019-05-03T20:35:19.420Z,2.35
2019-05-03T20:37:48.949Z,2.15
2019-05-03T20:40:18.539Z,2.40
2019-05-03T20:42:49.418Z,2.22
2019-05-03T20:45:24.894Z,1.85
2019-05-03T20:47:58.783Z,2.70
2019-05-03T20:50:29.931Z,2.37
2019-05-03T20:53:00.241Z,2.45
2019-05-03T20:55:30.344Z,2.83
2019-05-03T20:57:59.453Z,2.27
2019-05-03T21:00:29.679Z,2.15
2019-05-03T21:02:59.098Z,2.30
2019-05-03T21:05:33.032Z,2.00
2019-05-03T21:07:59.292Z,2.10
2019-05-03T21:10:28.423Z,1.90
2019-05-03T21:12:58.419Z,1.72
2019-05-03T21:15:47.490Z,3.12
2019-05-03T21:18:21.038Z,2.67
2019-05-03T21:20:57.559Z,2.70
2019-05-03T21:23:28.295Z,3.33
2019-05-03T21:26:12.442Z,4.12
2019-05-03T21:28:36.117Z,2.45
2019-05-03T21:31:05.703Z,2.55
2019-05-03T21:33:35.521Z,2.55
2019-05-03T21:36:05.054Z,3.37
2019-05-03T21:38:35.476Z,2.77
2019-05-03T21:41:05.414Z,3.08
2019-05-03T21:43:35.048Z,2.60
2019-05-03T21:46:08.889Z,3.33
2019-05-03T21:48:56.789Z,3.47
2019-05-03T21:51:25.916Z,3.00
2019-05-03T21:53:56.048Z,2.62
2019-05-03T21:56:25.143Z,3.17
2019-05-03T21:58:55.298Z,3.02
2019-05-03T22:01:25.848Z,3.33
2019-05-03T22:03:55.515Z,2.98
2019-05-03T22:06:24.842Z,2.80
2019-05-03T22:08:55.412Z,3.10
2019-05-03T22:11:25.215Z,3.52
2019-05-03T22:13:57.037Z,3.42
2019-05-03T22:16:40.210Z,2.58
2019-05-03T22:19:09.312Z,3.27
2019-05-03T22:21:40.692Z,2.70
2019-05-03T22:24:42.051Z,2.40
2019-05-03T22:27:15.277Z,2.42
2019-05-03T22:29:45.800Z,2.37
2019-05-03T22:32:16.631Z,3.15
2019-05-03T22:34:46.994Z,3.27
2019-05-03T22:37:18.050Z,2.50
2019-05-03T22:39:47.732Z,4.33
2019-05-03T22:42:16.822Z,2.27
2019-05-03T22:44:45.821Z,3.00
2019-05-03T22:47:15.094Z,2.40
2019-05-03T22:49:45.629Z,2.45
2019-05-03T22:52:16.178Z,2.80
2019-05-03T22:54:45.242Z,1.92
2019-05-03T22:57:15.273Z,2.70
2019-05-03T22:59:44.868Z,2.33
2019-05-03T23:02:16.803Z,3.20
2019-05-03T23:04:45.752Z,3.37
2019-05-03T23:07:15.250Z,2.47
2019-05-03T23:09:44.610Z,3.10
2019-05-03T23:12:13.848Z,2.72
2019-05-03T23:14:44.650Z,2.75
2019-05-03T23:17:14.976Z,2.62
2019-05-03T23:19:45.846Z,2.52
2019-05-03T23:22:25.302Z,3.47
2019-05-03T23:24:54.884Z,2.30
2019-05-03T23:27:25.012Z,2.77
2019-05-03T23:29:54.710Z,2.35
2019-05-03T23:32:24.537Z,2.80
2019-05-03T23:34:54.471Z,2.67
2019-05-03T23:37:23.845Z,2.30
2019-05-03T23:39:54.989Z,2.75
2019-05-03T23:42:24.459Z,2.70
2019-05-03T23:44:53.789Z,2.70
2019-05-03T23:47:30.671Z,3.05
2019-05-03T23:49:59.670Z,2.85
2019-05-03T23:52:30.292Z,2.52
2019-05-03T23:55:01.019Z,3.85
2019-05-03T23:57:30.430Z,2.50
2019-05-03T23:59:59.662Z,3.10
